CZFN

Tulita Airport

Tulita, Northwest Territories, Canada
METAR CZFN 202300Z 20006KT 150V230 20SM SCT095 SCT210 12/07 A3032 RMK AC3CI1 15.5 / 9.2 / 0.2 / LAST STFD OBS/NEXT 231500Z SLP273
Observed Flight Rules
Jul-20 @ 23:00 UTC (15 hours ago) Visual Flight Rules
Wind Visibility Clouds
200° at 6 knots 20 miles
  • Scattered at 9,500' AGL
  • Scattered at 21,000' AGL
Temperatures Readings
Current 12°C / 54°F
Dewpoint 7°C / 45°F
Humidity 72%
Altimeter 30.32" Hg
Pressure 1027.3 hPa
Elevation 98
METAR CZFN 202300Z 20006KT 150V230 20SM SCT095 SCT210 12/07 A3032 RMK AC3CI1 15.5 / 9.2 / 0.2 / LAST STFD OBS/NEXT 231500Z SLP273
Observed Flight Rules
Jul-20 @ 23:00 UTC
(15 hours ago)
VFR
Wind Visibility
200° at 6 knots 20 miles
Clouds
  • Scattered at 9,500' AGL
  • Scattered at 21,000' AGL
Temperature Dewpoint
12°C / 54°F 7°C / 45°F
Humidity Altimeter Pressure
72% 30.32" Hg 1027.3 hPa